Terminal Aerodrome Forecast
Issued by NWS

Home | Current Version | Previous Version | Text Only | Print | Product List | Glossary Off
Versions: 1 2 3 4 5 6 7 8 9 10 11 12 13 14 15 16 17

000
FTUS43 KMPX 072122 AAA
TAFAXN
TAF AMD
KAXN 072122Z 0721/0818 29020G29KT 1 1/2SM -SN BLSN VV012
      TEMPO 0722/0802 3SM -SN BLSN
     FM081500 32018G24KT P6SM -SN OVC015=

USA.gov is the U.S. government's official web portal to all federal, state and local government web resources and services.